createdAt,value
2018-07-06T00:02:29.527Z,16.10
2018-07-06T00:05:09.099Z,16.10
2018-07-06T00:07:48.896Z,16.10
2018-07-06T00:10:28.572Z,16.10
2018-07-06T00:15:41.661Z,16.20
2018-07-06T00:18:21.296Z,16.20
2018-07-06T00:21:00.795Z,16.20
2018-07-06T00:23:40.433Z,16.20
2018-07-06T00:26:19.923Z,16.30
2018-07-06T00:28:59.580Z,16.30
2018-07-06T00:31:39.111Z,16.30
2018-07-06T00:34:18.740Z,16.30
2018-07-06T00:36:58.268Z,16.20
2018-07-06T00:39:37.911Z,16.20
2018-07-06T00:42:17.445Z,16.20
2018-07-06T00:44:57.000Z,16.20
2018-07-06T00:47:36.423Z,16.20
2018-07-06T00:50:16.095Z,16.20
2018-07-06T00:52:55.536Z,16.20
2018-07-06T00:55:35.186Z,16.20
2018-07-06T00:58:14.755Z,16.20
2018-07-06T01:00:54.361Z,16.20
2018-07-06T01:03:33.900Z,16.20
2018-07-06T01:06:13.384Z,16.10
2018-07-06T01:08:52.927Z,16.20
2018-07-06T01:11:32.451Z,16.20
2018-07-06T01:16:45.747Z,16.20
2018-07-06T01:19:25.313Z,16.20
2018-07-06T01:22:04.805Z,16.20
2018-07-06T01:24:44.386Z,16.30
2018-07-06T01:27:23.900Z,16.30
2018-07-06T01:30:03.549Z,16.30
2018-07-06T01:32:43.055Z,16.30
2018-07-06T01:35:22.520Z,16.20
2018-07-06T01:38:02.046Z,16.20
2018-07-06T01:40:41.395Z,16.20
2018-07-06T01:43:20.948Z,16.20
2018-07-06T01:46:00.691Z,16.20
2018-07-06T01:48:40.312Z,16.20
2018-07-06T01:51:19.912Z,16.20
2018-07-06T01:53:59.616Z,16.20
2018-07-06T01:56:39.145Z,16.20
2018-07-06T01:59:18.647Z,16.20
2018-07-06T02:01:58.351Z,16.30
2018-07-06T02:04:37.879Z,16.20
2018-07-06T02:07:17.548Z,16.20
2018-07-06T02:09:57.009Z,16.20
2018-07-06T02:12:36.575Z,16.20
2018-07-06T02:15:16.047Z,16.20
2018-07-06T02:17:55.549Z,16.30
2018-07-06T02:20:34.935Z,16.30
2018-07-06T02:23:14.515Z,16.30
2018-07-06T02:25:54.076Z,16.30
2018-07-06T02:28:33.616Z,16.30
2018-07-06T02:31:13.029Z,16.30
2018-07-06T02:33:52.753Z,16.30
2018-07-06T02:36:32.341Z,16.20
2018-07-06T02:39:11.833Z,16.20
2018-07-06T02:44:25.191Z,16.20
2018-07-06T02:47:04.834Z,16.20
2018-07-06T02:49:44.240Z,16.20
2018-07-06T02:52:24.101Z,16.30
2018-07-06T02:55:03.775Z,16.30
2018-07-06T02:57:43.289Z,16.20
2018-07-06T03:00:22.983Z,16.10
2018-07-06T03:03:02.455Z,16.10
2018-07-06T03:05:41.962Z,16.10
2018-07-06T03:08:21.817Z,16.10
2018-07-06T03:11:01.565Z,16.00
2018-07-06T03:13:41.200Z,16.10
2018-07-06T03:16:20.947Z,16.10
2018-07-06T03:19:00.527Z,16.00
2018-07-06T03:21:39.985Z,16.10
2018-07-06T03:24:19.473Z,16.00
2018-07-06T03:26:58.825Z,16.00
2018-07-06T03:32:12.049Z,16.00
2018-07-06T03:34:51.664Z,16.00
2018-07-06T03:37:31.429Z,16.00
2018-07-06T03:40:11.034Z,15.90
2018-07-06T03:42:50.600Z,16.00
2018-07-06T03:45:30.120Z,16.00
2018-07-06T03:48:09.671Z,16.00
2018-07-06T03:50:49.091Z,16.00
2018-07-06T03:53:28.625Z,16.00
2018-07-06T03:56:08.020Z,16.00
2018-07-06T04:01:20.881Z,16.00
2018-07-06T04:04:00.473Z,16.00
2018-07-06T04:06:40.034Z,16.00
2018-07-06T04:09:19.921Z,16.00
2018-07-06T04:11:59.341Z,16.00
2018-07-06T04:14:38.876Z,15.90
2018-07-06T04:17:18.489Z,15.90
2018-07-06T04:19:58.137Z,16.00
2018-07-06T04:22:37.700Z,16.00
2018-07-06T04:25:17.199Z,15.90
2018-07-06T04:27:56.638Z,15.90
2018-07-06T04:30:36.292Z,15.90
2018-07-06T04:33:15.896Z,15.90
2018-07-06T04:35:55.350Z,15.90
2018-07-06T04:38:34.964Z,15.90
2018-07-06T04:41:14.424Z,15.80
2018-07-06T04:43:53.899Z,15.80
2018-07-06T04:46:33.520Z,15.80
2018-07-06T04:49:13.123Z,15.90
2018-07-06T04:51:52.660Z,16.00
2018-07-06T04:54:32.188Z,16.00
2018-07-06T04:57:11.854Z,16.00
2018-07-06T04:59:51.565Z,16.00
2018-07-06T05:02:31.146Z,16.10
2018-07-06T05:05:10.930Z,16.00
2018-07-06T05:10:23.994Z,16.00
2018-07-06T05:13:03.683Z,16.10
2018-07-06T05:15:43.187Z,16.10
2018-07-06T05:18:22.849Z,16.10
2018-07-06T05:21:02.429Z,16.10
2018-07-06T05:23:41.919Z,16.20
2018-07-06T05:26:21.525Z,16.20
2018-07-06T05:29:01.296Z,16.30
2018-07-06T05:31:40.820Z,16.30
2018-07-06T05:34:20.283Z,16.30
2018-07-06T05:36:59.936Z,16.20
2018-07-06T05:39:39.263Z,16.20
2018-07-06T05:42:18.818Z,16.20
2018-07-06T05:44:58.504Z,16.20
2018-07-06T05:50:11.740Z,16.20
2018-07-06T05:52:51.433Z,16.30
2018-07-06T05:55:30.946Z,16.40
2018-07-06T05:58:10.646Z,16.40
2018-07-06T06:00:50.200Z,16.40
2018-07-06T06:03:29.790Z,16.40
2018-07-06T06:06:09.284Z,16.40
2018-07-06T06:11:04.753Z,16.40
2018-07-06T06:13:32.818Z,16.40
2018-07-06T06:16:00.945Z,16.40
2018-07-06T06:18:28.980Z,16.40
2018-07-06T06:20:57.029Z,16.40
2018-07-06T06:23:25.043Z,16.30
2018-07-06T06:25:53.105Z,16.40
2018-07-06T06:28:21.224Z,16.40
2018-07-06T06:30:49.277Z,16.40
2018-07-06T06:35:45.527Z,16.40
2018-07-06T06:40:41.408Z,16.30
2018-07-06T06:43:09.452Z,16.30
2018-07-06T06:45:37.509Z,16.20
2018-07-06T06:48:05.645Z,16.20
2018-07-06T06:50:33.727Z,16.20
2018-07-06T06:53:01.814Z,16.20
2018-07-06T06:55:29.824Z,16.10
2018-07-06T06:57:57.904Z,16.10
2018-07-06T07:00:27.662Z,16.10
2018-07-06T07:02:54.042Z,16.10
2018-07-06T07:05:22.097Z,16.00
2018-07-06T07:07:50.269Z,16.00
2018-07-06T07:10:18.270Z,16.10
2018-07-06T07:12:46.349Z,16.10
2018-07-06T07:15:14.404Z,16.10
2018-07-06T07:17:42.468Z,16.10
2018-07-06T07:20:10.525Z,16.10
2018-07-06T07:22:38.808Z,16.10
2018-07-06T07:25:06.878Z,16.30
2018-07-06T07:27:34.960Z,16.20
2018-07-06T07:30:03.098Z,16.30
2018-07-06T07:32:31.117Z,16.30
2018-07-06T07:34:59.200Z,16.30
2018-07-06T07:37:27.285Z,16.30
2018-07-06T07:42:23.185Z,16.30
2018-07-06T07:44:51.276Z,16.30
2018-07-06T07:47:19.393Z,16.30
2018-07-06T07:49:47.445Z,16.30
2018-07-06T07:52:27.048Z,16.40
2018-07-06T07:54:55.870Z,16.50
2018-07-06T07:57:24.128Z,16.50
2018-07-06T07:59:53.958Z,16.40
2018-07-06T08:02:22.024Z,16.40
2018-07-06T08:04:50.504Z,16.50
2018-07-06T08:09:46.468Z,16.70
2018-07-06T08:12:14.588Z,16.70
2018-07-06T08:14:42.669Z,16.70
2018-07-06T08:17:10.707Z,16.90
2018-07-06T08:19:38.735Z,16.90
2018-07-06T08:22:06.792Z,17.00
2018-07-06T08:27:02.673Z,17.30
2018-07-06T08:29:30.704Z,17.30
2018-07-06T08:31:58.757Z,17.60
2018-07-06T08:37:42.501Z,17.80
2018-07-06T08:40:10.580Z,17.90
2018-07-06T08:42:39.856Z,18.00
2018-07-06T08:45:08.356Z,18.10
2018-07-06T08:47:36.529Z,18.00
2018-07-06T08:50:05.696Z,18.10
2018-07-06T08:52:34.482Z,18.00
2018-07-06T08:55:03.136Z,18.10
2018-07-06T08:57:32.199Z,18.30
2018-07-06T09:00:00.808Z,18.40
2018-07-06T09:02:29.227Z,18.30
2018-07-06T09:04:58.480Z,18.40
2018-07-06T09:07:26.844Z,18.30
2018-07-06T09:09:55.718Z,18.40
2018-07-06T09:12:24.327Z,18.50
2018-07-06T09:14:52.937Z,18.60
2018-07-06T09:17:22.777Z,18.50
2018-07-06T09:19:52.225Z,18.60
2018-07-06T09:22:20.926Z,18.70
2018-07-06T09:24:50.761Z,18.60
2018-07-06T09:27:19.258Z,18.70
2018-07-06T09:29:47.864Z,18.70
2018-07-06T09:32:16.250Z,18.80
2018-07-06T09:34:44.715Z,18.80
2018-07-06T09:37:13.158Z,18.90
2018-07-06T09:39:42.889Z,18.90
2018-07-06T09:42:11.369Z,18.80
2018-07-06T09:44:40.912Z,18.70
2018-07-06T09:47:09.261Z,18.70
2018-07-06T09:49:37.792Z,18.60
2018-07-06T09:52:07.013Z,18.70
2018-07-06T09:54:35.593Z,18.80
2018-07-06T09:57:04.104Z,18.90
2018-07-06T09:59:32.518Z,18.80
2018-07-06T10:02:01.102Z,18.70
2018-07-06T10:04:29.719Z,18.70
2018-07-06T10:06:58.233Z,18.90
2018-07-06T10:09:26.316Z,19.00
2018-07-06T10:11:54.329Z,18.90
2018-07-06T10:14:22.380Z,18.90
2018-07-06T10:16:50.424Z,19.10
2018-07-06T10:19:18.487Z,19.00
2018-07-06T10:21:46.525Z,18.90
2018-07-06T10:24:14.548Z,19.10
2018-07-06T10:26:42.592Z,19.30
2018-07-06T10:31:23.392Z,19.40
2018-07-06T10:33:51.472Z,19.10
2018-07-06T10:36:19.488Z,19.20
2018-07-06T10:38:47.515Z,19.10
2018-07-06T10:43:43.471Z,19.00
2018-07-06T10:46:11.553Z,19.10
2018-07-06T10:48:39.594Z,19.10
2018-07-06T10:53:36.819Z,19.10
2018-07-06T10:56:04.889Z,19.10
2018-07-06T10:58:32.960Z,19.10
2018-07-06T11:01:01.037Z,19.30
2018-07-06T11:03:29.108Z,19.20
2018-07-06T11:05:57.184Z,19.10
2018-07-06T11:08:25.220Z,19.10
2018-07-06T11:10:53.284Z,19.30
2018-07-06T11:13:21.324Z,19.50
2018-07-06T11:15:49.381Z,19.40
2018-07-06T11:18:17.401Z,19.40
2018-07-06T11:20:45.492Z,19.20
2018-07-06T11:23:13.515Z,19.20
2018-07-06T11:25:41.552Z,19.30
2018-07-06T11:28:09.915Z,19.50
2018-07-06T11:30:38.597Z,19.50
2018-07-06T11:33:07.198Z,19.60
2018-07-06T11:38:03.208Z,19.40
2018-07-06T11:40:31.170Z,19.60
2018-07-06T11:42:59.216Z,19.60
2018-07-06T11:45:27.252Z,19.60
2018-07-06T11:47:55.312Z,19.40
2018-07-06T11:50:23.473Z,19.50
2018-07-06T11:55:19.273Z,19.70
2018-07-06T11:57:47.288Z,19.80
2018-07-06T12:00:15.316Z,19.80
2018-07-06T12:02:43.373Z,19.80
2018-07-06T12:05:11.426Z,19.90
2018-07-06T12:10:07.300Z,19.80
2018-07-06T12:12:35.333Z,19.80
2018-07-06T12:15:03.582Z,20.00
2018-07-06T12:17:31.723Z,19.90
2018-07-06T12:19:59.763Z,19.90
2018-07-06T12:22:27.830Z,19.80
2018-07-06T12:24:56.181Z,19.90
2018-07-06T12:29:52.097Z,20.00
2018-07-06T12:32:20.162Z,19.90
2018-07-06T12:34:48.232Z,19.70
2018-07-06T12:37:16.280Z,19.70
2018-07-06T12:39:44.354Z,19.80
2018-07-06T12:42:12.393Z,20.00
2018-07-06T12:44:40.439Z,19.80
2018-07-06T12:49:36.351Z,19.80
2018-07-06T12:52:04.408Z,19.90
2018-07-06T12:54:32.496Z,19.80
2018-07-06T12:57:00.572Z,20.00
2018-07-06T12:59:28.656Z,20.10
2018-07-06T13:04:24.554Z,19.80
2018-07-06T13:06:52.596Z,19.80
2018-07-06T13:09:20.637Z,20.00
2018-07-06T13:11:48.664Z,19.90
2018-07-06T13:14:16.723Z,19.70
2018-07-06T13:16:44.787Z,19.50
2018-07-06T13:19:12.809Z,19.60
2018-07-06T13:21:40.821Z,19.60
2018-07-06T13:24:08.852Z,19.50
2018-07-06T13:26:36.885Z,19.50
2018-07-06T13:29:05.815Z,19.50
2018-07-06T13:34:01.672Z,19.70
2018-07-06T13:36:29.713Z,19.70
2018-07-06T13:38:57.767Z,19.60
2018-07-06T13:41:25.777Z,19.60
2018-07-06T13:43:53.837Z,19.70
2018-07-06T13:48:49.768Z,19.80
2018-07-06T13:51:17.832Z,20.00
2018-07-06T13:53:45.857Z,20.10
2018-07-06T13:56:13.901Z,19.80
2018-07-06T13:58:41.941Z,19.80
2018-07-06T14:03:37.856Z,19.70
2018-07-06T14:06:05.898Z,19.70
2018-07-06T14:08:34.208Z,19.80
2018-07-06T14:11:02.300Z,19.70
2018-07-06T14:13:30.332Z,19.70
2018-07-06T14:15:58.377Z,19.70
2018-07-06T14:18:26.408Z,19.60
2018-07-06T14:20:54.461Z,19.50
2018-07-06T14:23:22.482Z,19.60
2018-07-06T14:25:50.500Z,19.80
2018-07-06T14:28:18.541Z,19.70
2018-07-06T14:30:46.624Z,19.50
2018-07-06T14:33:14.673Z,19.70
2018-07-06T14:35:42.775Z,19.60
2018-07-06T14:40:38.556Z,19.40
2018-07-06T14:43:06.597Z,19.40
2018-07-06T14:45:34.632Z,19.50
2018-07-06T14:48:02.665Z,19.50
2018-07-06T14:50:30.692Z,19.70
2018-07-06T14:52:58.756Z,19.80
2018-07-06T14:55:26.841Z,19.70
2018-07-06T14:57:54.896Z,19.80
2018-07-06T15:00:23.058Z,19.60
2018-07-06T15:02:51.120Z,19.80
2018-07-06T15:05:19.184Z,19.50
2018-07-06T15:07:47.211Z,19.60
2018-07-06T15:10:15.303Z,19.80
2018-07-06T15:12:43.373Z,19.60
2018-07-06T15:20:07.328Z,19.80
2018-07-06T15:22:35.368Z,20.20
2018-07-06T15:25:03.445Z,20.70
2018-07-06T15:27:31.469Z,21.20
2018-07-06T15:32:27.402Z,21.20
2018-07-06T15:34:55.432Z,21.70
2018-07-06T15:37:23.491Z,22.20
2018-07-06T15:39:51.689Z,22.30
2018-07-06T15:42:19.697Z,22.20
2018-07-06T15:44:47.716Z,22.00
2018-07-06T15:47:15.725Z,21.80
2018-07-06T15:49:43.768Z,21.70
2018-07-06T15:52:11.775Z,21.60
2018-07-06T15:57:07.894Z,21.40
2018-07-06T15:59:35.951Z,21.20
2018-07-06T16:02:04.027Z,21.20
2018-07-06T16:04:32.075Z,21.10
2018-07-06T16:07:00.089Z,20.80
2018-07-06T16:11:55.979Z,21.10
2018-07-06T16:14:24.020Z,21.00
2018-07-06T16:16:52.103Z,21.30
2018-07-06T16:19:20.137Z,21.60
2018-07-06T16:21:48.172Z,21.70
2018-07-06T16:24:16.211Z,21.30
2018-07-06T16:26:44.328Z,21.40
2018-07-06T16:29:12.401Z,21.20
2018-07-06T16:31:40.539Z,20.90
2018-07-06T16:34:08.512Z,21.10
2018-07-06T16:36:36.557Z,21.40
2018-07-06T16:39:05.029Z,22.00
2018-07-06T16:41:33.080Z,21.90
2018-07-06T16:44:01.212Z,21.50
2018-07-06T16:46:29.209Z,21.60
2018-07-06T16:48:57.246Z,21.60
2018-07-06T16:51:25.350Z,21.60
2018-07-06T16:53:53.392Z,21.40
2018-07-06T16:56:21.413Z,21.20
2018-07-06T16:58:49.516Z,21.00
2018-07-06T17:01:17.581Z,21.00
2018-07-06T17:03:45.621Z,20.80
2018-07-06T17:08:41.535Z,20.90
2018-07-06T17:11:09.623Z,21.00
2018-07-06T17:13:37.653Z,20.70
2018-07-06T17:16:05.729Z,20.80
2018-07-06T17:18:33.755Z,20.80
2018-07-06T17:21:01.841Z,20.90
2018-07-06T17:23:29.824Z,21.00
2018-07-06T17:25:57.887Z,21.00
2018-07-06T17:28:25.911Z,20.90
2018-07-06T17:30:53.958Z,20.70
2018-07-06T17:33:22.044Z,20.60
2018-07-06T17:35:50.080Z,20.30
2018-07-06T17:38:18.109Z,20.00
2018-07-06T17:40:46.153Z,20.10
2018-07-06T17:43:14.188Z,20.10
2018-07-06T17:45:42.274Z,20.10
2018-07-06T17:48:10.300Z,20.20
2018-07-06T17:50:38.387Z,20.30
2018-07-06T17:53:06.417Z,20.00
2018-07-06T17:58:02.280Z,19.50
2018-07-06T18:00:30.324Z,19.20
2018-07-06T18:02:58.357Z,18.90
2018-07-06T18:05:26.404Z,18.70
2018-07-06T18:07:54.431Z,18.50
2018-07-06T18:10:22.569Z,18.40
2018-07-06T18:12:50.629Z,18.30
2018-07-06T18:15:18.967Z,18.00
2018-07-06T18:17:46.988Z,17.70
2018-07-06T18:20:15.001Z,17.30
2018-07-06T18:22:43.134Z,17.00
2018-07-06T18:25:11.165Z,17.00
2018-07-06T18:27:39.229Z,16.90
2018-07-06T18:30:07.273Z,16.80
2018-07-06T18:35:03.209Z,16.70
2018-07-06T18:39:59.054Z,16.50
2018-07-06T18:42:27.107Z,16.50
2018-07-06T18:47:22.985Z,16.50
2018-07-06T18:49:51.017Z,16.40
2018-07-06T18:54:47.003Z,16.30
2018-07-06T18:57:15.788Z,16.30
2018-07-06T18:59:43.827Z,16.20
2018-07-06T19:04:39.656Z,16.20
2018-07-06T19:07:07.726Z,16.10
2018-07-06T19:09:35.778Z,16.20
2018-07-06T19:12:03.808Z,16.10
2018-07-06T19:14:31.900Z,16.00
2018-07-06T19:16:59.908Z,16.00
2018-07-06T19:19:27.948Z,15.90
2018-07-06T19:21:55.961Z,15.90
2018-07-06T19:24:24.044Z,15.80
2018-07-06T19:26:52.048Z,15.80
2018-07-06T19:29:20.092Z,15.80
2018-07-06T19:31:48.112Z,15.80
2018-07-06T19:34:16.153Z,15.70
2018-07-06T19:36:44.204Z,15.70
2018-07-06T19:39:12.257Z,15.70
2018-07-06T19:41:40.275Z,15.70
2018-07-06T19:44:08.968Z,15.60
2018-07-06T19:46:36.988Z,15.60
2018-07-06T19:49:05.137Z,15.60
2018-07-06T19:51:33.177Z,15.60
2018-07-06T19:54:01.217Z,15.60
2018-07-06T19:56:29.268Z,15.50
2018-07-06T19:58:57.307Z,15.50
2018-07-06T20:01:25.376Z,15.50
2018-07-06T20:06:21.301Z,15.40
2018-07-06T20:08:49.349Z,15.40
2018-07-06T20:11:17.520Z,15.40
2018-07-06T20:13:45.560Z,15.40
2018-07-06T20:16:13.583Z,15.40
2018-07-06T20:18:41.676Z,15.30
2018-07-06T20:23:37.554Z,15.30
2018-07-06T20:26:05.676Z,15.20
2018-07-06T20:31:01.577Z,15.20
2018-07-06T20:33:29.621Z,15.20
2018-07-06T20:35:57.663Z,15.20
2018-07-06T20:38:25.723Z,15.20
2018-07-06T20:40:53.784Z,15.20
2018-07-06T20:43:21.875Z,15.10
2018-07-06T20:45:49.840Z,15.20
2018-07-06T20:48:17.904Z,15.10
2018-07-06T21:04:39.216Z,14.90
2018-07-06T21:07:07.272Z,14.90
2018-07-06T21:09:35.276Z,14.90
2018-07-06T21:12:03.384Z,14.90
2018-07-06T21:14:31.427Z,14.80
2018-07-06T21:16:59.457Z,14.90
2018-07-06T21:19:27.508Z,14.80
2018-07-06T21:21:55.524Z,14.80
2018-07-06T21:24:23.768Z,14.70
2018-07-06T21:26:51.833Z,14.70
2018-07-06T21:31:47.708Z,14.60
2018-07-06T21:34:15.735Z,14.60
2018-07-06T21:39:11.610Z,14.60
2018-07-06T21:41:39.619Z,14.50
2018-07-06T21:44:07.664Z,14.50
2018-07-06T21:46:35.704Z,14.50
2018-07-06T21:49:03.736Z,14.50
2018-07-06T21:51:31.772Z,14.40
2018-07-06T21:53:59.820Z,14.40
2018-07-06T21:56:27.853Z,14.40
2018-07-06T21:58:56.229Z,14.40
2018-07-06T22:01:24.349Z,14.30
2018-07-06T22:03:52.404Z,14.30
2018-07-06T22:06:20.458Z,14.30
2018-07-06T22:08:48.469Z,14.20
2018-07-06T22:11:16.506Z,14.20
2018-07-06T22:13:44.598Z,14.20
2018-07-06T22:16:12.624Z,14.20
2018-07-06T22:18:40.635Z,14.10
2018-07-06T22:21:08.663Z,14.10
2018-07-06T22:23:36.684Z,14.10
2018-07-06T22:26:04.720Z,14.10
2018-07-06T22:28:32.763Z,14.10
2018-07-06T22:31:00.840Z,14.10
2018-07-06T22:33:28.855Z,14.00
2018-07-06T22:35:56.896Z,14.10
2018-07-06T22:38:24.944Z,14.00
2018-07-06T22:40:52.992Z,14.00
2018-07-06T22:43:21.000Z,14.00
2018-07-06T22:48:16.870Z,14.00
2018-07-06T22:50:44.921Z,14.00
2018-07-06T22:55:40.817Z,13.90
2018-07-06T22:58:08.832Z,13.90
2018-07-06T23:00:36.877Z,13.90
2018-07-06T23:03:05.758Z,13.90
2018-07-06T23:05:33.858Z,13.80
2018-07-06T23:08:01.833Z,13.80
2018-07-06T23:10:29.861Z,13.80
2018-07-06T23:12:57.916Z,13.80
2018-07-06T23:15:25.934Z,13.80
2018-07-06T23:17:53.952Z,13.80
2018-07-06T23:20:21.984Z,13.80
2018-07-06T23:22:59.625Z,13.90
2018-07-06T23:25:27.673Z,13.80
2018-07-06T23:27:55.984Z,13.80
2018-07-06T23:30:24.009Z,13.80
2018-07-06T23:32:52.068Z,13.80
2018-07-06T23:35:20.192Z,13.80
2018-07-06T23:37:48.236Z,13.80
2018-07-06T23:40:16.300Z,13.80
2018-07-06T23:42:44.320Z,13.80
2018-07-06T23:47:40.148Z,13.80
2018-07-06T23:52:36.011Z,13.80
2018-07-06T23:55:04.180Z,13.80
2018-07-06T23:57:32.174Z,13.80
